sensor_id;sensor_type;location;lat;lon;timestamp;P1;durP1;ratioP1;P2;durP2;ratioP2
64686;SDS011;51113;53.646;-113.674;2022-07-10T00:01:17;0.73;;;0.70;;
64686;SDS011;51113;53.646;-113.674;2022-07-10T00:03:46;1.73;;;0.95;;
64686;SDS011;51113;53.646;-113.674;2022-07-10T00:06:17;0.60;;;0.60;;
64686;SDS011;51113;53.646;-113.674;2022-07-10T00:08:46;0.93;;;0.65;;
64686;SDS011;51113;53.646;-113.674;2022-07-10T00:11:15;0.50;;;0.50;;
64686;SDS011;51113;53.646;-113.674;2022-07-10T00:13:44;1.85;;;0.65;;
64686;SDS011;51113;53.646;-113.674;2022-07-10T00:16:12;1.85;;;0.70;;
64686;SDS011;51113;53.646;-113.674;2022-07-10T00:18:41;1.50;;;0.70;;
64686;SDS011;51113;53.646;-113.674;2022-07-10T00:21:09;0.73;;;0.70;;
64686;SDS011;51113;53.646;-113.674;2022-07-10T00:23:38;3.13;;;0.70;;
64686;SDS011;51113;53.646;-113.674;2022-07-10T00:26:07;0.80;;;0.60;;
64686;SDS011;51113;53.646;-113.674;2022-07-10T00:28:37;0.85;;;0.60;;
64686;SDS011;51113;53.646;-113.674;2022-07-10T00:31:06;1.30;;;0.85;;
64686;SDS011;51113;53.646;-113.674;2022-07-10T00:33:38;2.25;;;1.23;;
64686;SDS011;51113;53.646;-113.674;2022-07-10T00:36:07;1.42;;;0.88;;
64686;SDS011;51113;53.646;-113.674;2022-07-10T00:38:36;1.60;;;0.88;;
64686;SDS011;51113;53.646;-113.674;2022-07-10T00:41:05;2.30;;;0.90;;
64686;SDS011;51113;53.646;-113.674;2022-07-10T00:46:24;3.17;;;0.98;;
64686;SDS011;51113;53.646;-113.674;2022-07-10T00:48:54;2.47;;;0.90;;
64686;SDS011;51113;53.646;-113.674;2022-07-10T00:51:27;2.33;;;0.93;;
64686;SDS011;51113;53.646;-113.674;2022-07-10T00:53:57;1.17;;;0.88;;
64686;SDS011;51113;53.646;-113.674;2022-07-10T00:56:28;1.13;;;0.90;;
64686;SDS011;51113;53.646;-113.674;2022-07-10T00:58:57;1.65;;;0.90;;
64686;SDS011;51113;53.646;-113.674;2022-07-10T01:01:26;1.15;;;0.90;;
64686;SDS011;51113;53.646;-113.674;2022-07-10T01:03:56;1.55;;;0.88;;
64686;SDS011;51113;53.646;-113.674;2022-07-10T01:06:24;2.65;;;1.00;;
64686;SDS011;51113;53.646;-113.674;2022-07-10T01:08:52;1.00;;;0.90;;
64686;SDS011;51113;53.646;-113.674;2022-07-10T01:11:21;3.78;;;1.08;;
64686;SDS011;51113;53.646;-113.674;2022-07-10T01:13:49;3.65;;;0.90;;
64686;SDS011;51113;53.646;-113.674;2022-07-10T01:16:18;2.15;;;0.88;;
64686;SDS011;51113;53.646;-113.674;2022-07-10T01:18:47;2.05;;;0.95;;
64686;SDS011;51113;53.646;-113.674;2022-07-10T01:21:29;1.58;;;0.70;;
64686;SDS011;51113;53.646;-113.674;2022-07-10T01:24:00;0.77;;;0.70;;
64686;SDS011;51113;53.646;-113.674;2022-07-10T01:26:34;2.03;;;0.80;;
64686;SDS011;51113;53.646;-113.674;2022-07-10T01:29:03;1.13;;;0.80;;
64686;SDS011;51113;53.646;-113.674;2022-07-10T01:31:34;1.48;;;0.82;;
64686;SDS011;51113;53.646;-113.674;2022-07-10T01:34:04;1.30;;;0.80;;
64686;SDS011;51113;53.646;-113.674;2022-07-10T01:36:35;2.10;;;0.90;;
64686;SDS011;51113;53.646;-113.674;2022-07-10T01:39:05;2.17;;;0.80;;
64686;SDS011;51113;53.646;-113.674;2022-07-10T01:41:35;0.70;;;0.70;;
64686;SDS011;51113;53.646;-113.674;2022-07-10T01:44:04;1.15;;;0.70;;
64686;SDS011;51113;53.646;-113.674;2022-07-10T01:46:33;3.65;;;0.80;;
64686;SDS011;51113;53.646;-113.674;2022-07-10T01:49:02;2.72;;;0.80;;
64686;SDS011;51113;53.646;-113.674;2022-07-10T01:51:30;0.90;;;0.80;;
64686;SDS011;51113;53.646;-113.674;2022-07-10T01:53:59;1.10;;;0.90;;
64686;SDS011;51113;53.646;-113.674;2022-07-10T01:56:31;2.63;;;0.70;;
64686;SDS011;51113;53.646;-113.674;2022-07-10T01:59:00;1.77;;;1.00;;
64686;SDS011;51113;53.646;-113.674;2022-07-10T02:01:31;2.05;;;0.80;;
64686;SDS011;51113;53.646;-113.674;2022-07-10T02:04:00;4.13;;;0.88;;
64686;SDS011;51113;53.646;-113.674;2022-07-10T02:06:47;1.90;;;1.05;;
64686;SDS011;51113;53.646;-113.674;2022-07-10T02:09:15;3.25;;;1.42;;
64686;SDS011;51113;53.646;-113.674;2022-07-10T02:11:45;1.80;;;1.00;;
64686;SDS011;51113;53.646;-113.674;2022-07-10T02:14:13;1.98;;;0.90;;
64686;SDS011;51113;53.646;-113.674;2022-07-10T02:16:42;1.63;;;1.00;;
64686;SDS011;51113;53.646;-113.674;2022-07-10T02:19:13;13.77;;;1.17;;
64686;SDS011;51113;53.646;-113.674;2022-07-10T02:21:42;5.35;;;1.10;;
64686;SDS011;51113;53.646;-113.674;2022-07-10T02:24:14;1.13;;;0.85;;
64686;SDS011;51113;53.646;-113.674;2022-07-10T02:26:43;3.95;;;0.80;;
64686;SDS011;51113;53.646;-113.674;2022-07-10T02:29:12;2.80;;;1.00;;
64686;SDS011;51113;53.646;-113.674;2022-07-10T02:31:40;1.20;;;0.90;;
64686;SDS011;51113;53.646;-113.674;2022-07-10T02:34:10;3.75;;;0.98;;
64686;SDS011;51113;53.646;-113.674;2022-07-10T02:36:39;5.25;;;1.10;;
64686;SDS011;51113;53.646;-113.674;2022-07-10T02:39:09;5.45;;;1.23;;
64686;SDS011;51113;53.646;-113.674;2022-07-10T02:41:38;2.25;;;1.10;;
64686;SDS011;51113;53.646;-113.674;2022-07-10T02:44:06;9.68;;;1.00;;
64686;SDS011;51113;53.646;-113.674;2022-07-10T02:46:35;1.63;;;0.90;;
64686;SDS011;51113;53.646;-113.674;2022-07-10T02:49:04;0.75;;;0.68;;
64686;SDS011;51113;53.646;-113.674;2022-07-10T02:51:33;2.92;;;0.90;;
64686;SDS011;51113;53.646;-113.674;2022-07-10T02:54:02;2.25;;;0.90;;
64686;SDS011;51113;53.646;-113.674;2022-07-10T02:56:31;4.03;;;0.90;;
64686;SDS011;51113;53.646;-113.674;2022-07-10T02:58:59;2.53;;;1.00;;
64686;SDS011;51113;53.646;-113.674;2022-07-10T03:01:28;1.50;;;0.90;;
64686;SDS011;51113;53.646;-113.674;2022-07-10T03:03:57;5.30;;;1.20;;
64686;SDS011;51113;53.646;-113.674;2022-07-10T03:06:26;2.33;;;1.00;;
64686;SDS011;51113;53.646;-113.674;2022-07-10T03:08:55;1.40;;;0.73;;
64686;SDS011;51113;53.646;-113.674;2022-07-10T03:11:24;1.17;;;0.90;;
64686;SDS011;51113;53.646;-113.674;2022-07-10T03:13:53;2.08;;;1.02;;
64686;SDS011;51113;53.646;-113.674;2022-07-10T03:16:22;1.27;;;0.80;;
64686;SDS011;51113;53.646;-113.674;2022-07-10T03:18:51;1.98;;;1.10;;
64686;SDS011;51113;53.646;-113.674;2022-07-10T03:21:20;1.98;;;1.20;;
64686;SDS011;51113;53.646;-113.674;2022-07-10T03:23:49;4.70;;;1.40;;
64686;SDS011;51113;53.646;-113.674;2022-07-10T03:26:19;2.35;;;1.60;;
64686;SDS011;51113;53.646;-113.674;2022-07-10T03:28:47;4.05;;;2.42;;
64686;SDS011;51113;53.646;-113.674;2022-07-10T03:31:16;2.47;;;1.30;;
64686;SDS011;51113;53.646;-113.674;2022-07-10T03:33:45;3.13;;;1.27;;
64686;SDS011;51113;53.646;-113.674;2022-07-10T03:36:14;2.42;;;1.50;;
64686;SDS011;51113;53.646;-113.674;2022-07-10T03:38:42;2.38;;;1.50;;
64686;SDS011;51113;53.646;-113.674;2022-07-10T03:41:14;2.78;;;2.00;;
64686;SDS011;51113;53.646;-113.674;2022-07-10T03:43:43;3.63;;;2.20;;
64686;SDS011;51113;53.646;-113.674;2022-07-10T03:46:12;8.32;;;3.22;;
64686;SDS011;51113;53.646;-113.674;2022-07-10T03:48:41;3.60;;;1.85;;
64686;SDS011;51113;53.646;-113.674;2022-07-10T03:51:10;3.42;;;2.60;;
64686;SDS011;51113;53.646;-113.674;2022-07-10T03:53:38;4.18;;;2.35;;
64686;SDS011;51113;53.646;-113.674;2022-07-10T03:56:07;4.30;;;1.75;;
64686;SDS011;51113;53.646;-113.674;2022-07-10T03:58:35;3.40;;;2.17;;
64686;SDS011;51113;53.646;-113.674;2022-07-10T04:01:04;3.72;;;2.00;;
64686;SDS011;51113;53.646;-113.674;2022-07-10T04:03:33;3.13;;;1.50;;
64686;SDS011;51113;53.646;-113.674;2022-07-10T04:06:02;4.95;;;1.67;;
64686;SDS011;51113;53.646;-113.674;2022-07-10T04:08:31;4.32;;;1.50;;
64686;SDS011;51113;53.646;-113.674;2022-07-10T04:10:59;4.15;;;1.60;;
64686;SDS011;51113;53.646;-113.674;2022-07-10T04:13:28;3.58;;;1.63;;
64686;SDS011;51113;53.646;-113.674;2022-07-10T04:15:57;2.58;;;1.45;;
64686;SDS011;51113;53.646;-113.674;2022-07-10T04:18:26;4.93;;;1.77;;
64686;SDS011;51113;53.646;-113.674;2022-07-10T04:20:55;4.35;;;1.50;;
64686;SDS011;51113;53.646;-113.674;2022-07-10T04:23:23;2.03;;;1.60;;
64686;SDS011;51113;53.646;-113.674;2022-07-10T04:25:52;1.77;;;1.30;;
64686;SDS011;51113;53.646;-113.674;2022-07-10T04:28:21;2.67;;;1.20;;
64686;SDS011;51113;53.646;-113.674;2022-07-10T04:30:50;3.63;;;1.70;;
64686;SDS011;51113;53.646;-113.674;2022-07-10T04:33:19;5.90;;;1.52;;
64686;SDS011;51113;53.646;-113.674;2022-07-10T04:35:47;4.40;;;1.38;;
64686;SDS011;51113;53.646;-113.674;2022-07-10T04:38:15;7.07;;;1.50;;
64686;SDS011;51113;53.646;-113.674;2022-07-10T04:40:44;2.53;;;1.40;;
64686;SDS011;51113;53.646;-113.674;2022-07-10T04:43:13;4.15;;;1.50;;
64686;SDS011;51113;53.646;-113.674;2022-07-10T04:45:42;7.78;;;1.27;;
64686;SDS011;51113;53.646;-113.674;2022-07-10T04:48:10;6.45;;;1.55;;
64686;SDS011;51113;53.646;-113.674;2022-07-10T04:50:39;6.53;;;1.50;;
64686;SDS011;51113;53.646;-113.674;2022-07-10T04:53:07;2.63;;;1.35;;
64686;SDS011;51113;53.646;-113.674;2022-07-10T04:55:36;2.00;;;1.40;;
64686;SDS011;51113;53.646;-113.674;2022-07-10T04:58:05;5.82;;;1.70;;
64686;SDS011;51113;53.646;-113.674;2022-07-10T05:00:34;2.10;;;1.23;;
64686;SDS011;51113;53.646;-113.674;2022-07-10T05:03:02;7.28;;;1.58;;
64686;SDS011;51113;53.646;-113.674;2022-07-10T05:05:32;1.88;;;1.35;;
64686;SDS011;51113;53.646;-113.674;2022-07-10T05:08:01;6.75;;;1.67;;
64686;SDS011;51113;53.646;-113.674;2022-07-10T05:10:30;5.30;;;1.73;;
64686;SDS011;51113;53.646;-113.674;2022-07-10T05:12:59;4.00;;;1.52;;
64686;SDS011;51113;53.646;-113.674;2022-07-10T05:15:28;3.92;;;1.60;;
64686;SDS011;51113;53.646;-113.674;2022-07-10T05:17:57;2.67;;;1.40;;
64686;SDS011;51113;53.646;-113.674;2022-07-10T05:20:26;2.47;;;1.40;;
64686;SDS011;51113;53.646;-113.674;2022-07-10T05:22:56;3.33;;;1.58;;
64686;SDS011;51113;53.646;-113.674;2022-07-10T05:25:25;6.72;;;1.85;;
64686;SDS011;51113;53.646;-113.674;2022-07-10T05:27:57;2.25;;;1.50;;
64686;SDS011;51113;53.646;-113.674;2022-07-10T05:30:26;2.55;;;1.50;;
64686;SDS011;51113;53.646;-113.674;2022-07-10T05:32:55;1.85;;;1.30;;
64686;SDS011;51113;53.646;-113.674;2022-07-10T05:35:24;1.70;;;1.17;;
64686;SDS011;51113;53.646;-113.674;2022-07-10T05:37:52;2.72;;;1.40;;
64686;SDS011;51113;53.646;-113.674;2022-07-10T05:40:21;2.10;;;1.30;;
64686;SDS011;51113;53.646;-113.674;2022-07-10T05:42:50;2.50;;;1.20;;
64686;SDS011;51113;53.646;-113.674;2022-07-10T05:45:20;2.55;;;1.23;;
64686;SDS011;51113;53.646;-113.674;2022-07-10T05:47:49;2.15;;;1.35;;
64686;SDS011;51113;53.646;-113.674;2022-07-10T05:50:17;3.13;;;1.30;;
64686;SDS011;51113;53.646;-113.674;2022-07-10T05:52:48;2.08;;;1.40;;
64686;SDS011;51113;53.646;-113.674;2022-07-10T05:55:16;4.60;;;1.20;;
64686;SDS011;51113;53.646;-113.674;2022-07-10T05:57:45;2.25;;;1.38;;
64686;SDS011;51113;53.646;-113.674;2022-07-10T06:00:14;4.25;;;1.30;;
64686;SDS011;51113;53.646;-113.674;2022-07-10T06:02:42;4.68;;;1.30;;
64686;SDS011;51113;53.646;-113.674;2022-07-10T06:05:12;1.70;;;1.20;;
64686;SDS011;51113;53.646;-113.674;2022-07-10T06:07:41;1.38;;;1.00;;
64686;SDS011;51113;53.646;-113.674;2022-07-10T06:10:09;2.67;;;1.20;;
64686;SDS011;51113;53.646;-113.674;2022-07-10T06:12:38;4.57;;;1.30;;
64686;SDS011;51113;53.646;-113.674;2022-07-10T06:15:07;3.72;;;1.10;;
64686;SDS011;51113;53.646;-113.674;2022-07-10T06:17:43;1.38;;;1.10;;
64686;SDS011;51113;53.646;-113.674;2022-07-10T06:20:12;4.82;;;1.30;;
64686;SDS011;51113;53.646;-113.674;2022-07-10T06:22:41;2.78;;;1.27;;
64686;SDS011;51113;53.646;-113.674;2022-07-10T06:25:10;2.35;;;1.13;;
64686;SDS011;51113;53.646;-113.674;2022-07-10T06:27:40;1.98;;;1.25;;
64686;SDS011;51113;53.646;-113.674;2022-07-10T06:30:09;2.10;;;1.30;;
64686;SDS011;51113;53.646;-113.674;2022-07-10T06:32:38;1.58;;;1.20;;
64686;SDS011;51113;53.646;-113.674;2022-07-10T06:35:07;1.77;;;1.20;;
64686;SDS011;51113;53.646;-113.674;2022-07-10T06:37:36;2.22;;;1.25;;
64686;SDS011;51113;53.646;-113.674;2022-07-10T06:40:06;1.85;;;1.10;;
64686;SDS011;51113;53.646;-113.674;2022-07-10T06:42:38;5.13;;;1.40;;
64686;SDS011;51113;53.646;-113.674;2022-07-10T06:45:10;2.10;;;1.30;;
64686;SDS011;51113;53.646;-113.674;2022-07-10T06:47:39;3.80;;;1.40;;
64686;SDS011;51113;53.646;-113.674;2022-07-10T06:50:25;7.68;;;1.23;;
64686;SDS011;51113;53.646;-113.674;2022-07-10T06:52:56;1.38;;;1.13;;
64686;SDS011;51113;53.646;-113.674;2022-07-10T06:55:26;1.95;;;1.30;;
64686;SDS011;51113;53.646;-113.674;2022-07-10T06:57:55;5.93;;;1.40;;
64686;SDS011;51113;53.646;-113.674;2022-07-10T07:00:24;2.10;;;1.40;;
64686;SDS011;51113;53.646;-113.674;2022-07-10T07:02:53;3.75;;;1.30;;
64686;SDS011;51113;53.646;-113.674;2022-07-10T07:05:22;1.40;;;1.20;;
64686;SDS011;51113;53.646;-113.674;2022-07-10T07:07:51;1.50;;;1.23;;
64686;SDS011;51113;53.646;-113.674;2022-07-10T07:10:20;2.20;;;1.40;;
64686;SDS011;51113;53.646;-113.674;2022-07-10T07:12:48;1.83;;;1.00;;
64686;SDS011;51113;53.646;-113.674;2022-07-10T07:15:17;1.55;;;1.30;;
64686;SDS011;51113;53.646;-113.674;2022-07-10T07:17:49;2.92;;;1.70;;
64686;SDS011;51113;53.646;-113.674;2022-07-10T07:20:25;3.33;;;1.42;;
64686;SDS011;51113;53.646;-113.674;2022-07-10T07:23:13;3.08;;;1.25;;
64686;SDS011;51113;53.646;-113.674;2022-07-10T07:25:43;1.80;;;1.10;;
64686;SDS011;51113;53.646;-113.674;2022-07-10T07:28:15;2.00;;;1.30;;
64686;SDS011;51113;53.646;-113.674;2022-07-10T07:30:44;2.83;;;1.38;;
64686;SDS011;51113;53.646;-113.674;2022-07-10T07:33:14;6.00;;;1.38;;
64686;SDS011;51113;53.646;-113.674;2022-07-10T07:35:43;1.98;;;1.10;;
64686;SDS011;51113;53.646;-113.674;2022-07-10T07:38:12;3.78;;;1.30;;
64686;SDS011;51113;53.646;-113.674;2022-07-10T07:40:41;1.77;;;1.20;;
64686;SDS011;51113;53.646;-113.674;2022-07-10T07:43:10;3.40;;;1.20;;
64686;SDS011;51113;53.646;-113.674;2022-07-10T07:45:40;2.10;;;1.08;;
64686;SDS011;51113;53.646;-113.674;2022-07-10T07:48:09;3.50;;;1.35;;
64686;SDS011;51113;53.646;-113.674;2022-07-10T07:50:37;1.83;;;1.33;;
64686;SDS011;51113;53.646;-113.674;2022-07-10T07:53:06;1.27;;;1.17;;
64686;SDS011;51113;53.646;-113.674;2022-07-10T07:55:35;1.70;;;1.30;;
64686;SDS011;51113;53.646;-113.674;2022-07-10T07:58:04;1.88;;;1.30;;
64686;SDS011;51113;53.646;-113.674;2022-07-10T08:00:32;4.72;;;2.47;;
64686;SDS011;51113;53.646;-113.674;2022-07-10T08:03:02;5.45;;;1.25;;
64686;SDS011;51113;53.646;-113.674;2022-07-10T08:05:31;2.55;;;1.63;;
64686;SDS011;51113;53.646;-113.674;2022-07-10T08:07:59;4.43;;;1.60;;
64686;SDS011;51113;53.646;-113.674;2022-07-10T08:10:33;3.65;;;1.50;;
64686;SDS011;51113;53.646;-113.674;2022-07-10T08:13:10;2.63;;;1.50;;
64686;SDS011;51113;53.646;-113.674;2022-07-10T08:15:39;6.45;;;1.67;;
64686;SDS011;51113;53.646;-113.674;2022-07-10T08:18:07;4.07;;;1.70;;
64686;SDS011;51113;53.646;-113.674;2022-07-10T08:20:36;3.13;;;1.55;;
64686;SDS011;51113;53.646;-113.674;2022-07-10T08:23:05;4.55;;;1.60;;
64686;SDS011;51113;53.646;-113.674;2022-07-10T08:25:34;6.22;;;1.60;;
64686;SDS011;51113;53.646;-113.674;2022-07-10T08:28:03;2.20;;;1.50;;
64686;SDS011;51113;53.646;-113.674;2022-07-10T08:30:38;4.63;;;2.13;;
64686;SDS011;51113;53.646;-113.674;2022-07-10T08:33:07;3.95;;;1.65;;
64686;SDS011;51113;53.646;-113.674;2022-07-10T08:35:36;1.90;;;1.45;;
64686;SDS011;51113;53.646;-113.674;2022-07-10T08:38:07;4.22;;;1.30;;
64686;SDS011;51113;53.646;-113.674;2022-07-10T08:40:36;5.07;;;2.08;;
64686;SDS011;51113;53.646;-113.674;2022-07-10T08:43:08;3.30;;;1.45;;
64686;SDS011;51113;53.646;-113.674;2022-07-10T08:45:37;7.20;;;1.50;;
64686;SDS011;51113;53.646;-113.674;2022-07-10T08:48:08;4.32;;;1.50;;
64686;SDS011;51113;53.646;-113.674;2022-07-10T08:50:42;2.28;;;1.52;;
64686;SDS011;51113;53.646;-113.674;2022-07-10T08:53:32;1.92;;;1.15;;
64686;SDS011;51113;53.646;-113.674;2022-07-10T08:56:02;1.67;;;1.40;;
64686;SDS011;51113;53.646;-113.674;2022-07-10T08:58:31;4.45;;;1.38;;
64686;SDS011;51113;53.646;-113.674;2022-07-10T09:01:03;2.10;;;1.40;;
64686;SDS011;51113;53.646;-113.674;2022-07-10T09:03:33;4.40;;;1.20;;
64686;SDS011;51113;53.646;-113.674;2022-07-10T09:06:02;4.45;;;1.40;;
64686;SDS011;51113;53.646;-113.674;2022-07-10T09:08:32;3.60;;;1.10;;
64686;SDS011;51113;53.646;-113.674;2022-07-10T09:13:50;3.25;;;1.40;;
64686;SDS011;51113;53.646;-113.674;2022-07-10T09:16:24;3.40;;;1.20;;
64686;SDS011;51113;53.646;-113.674;2022-07-10T09:18:55;4.30;;;1.30;;
64686;SDS011;51113;53.646;-113.674;2022-07-10T09:21:24;1.35;;;1.10;;
64686;SDS011;51113;53.646;-113.674;2022-07-10T09:23:57;1.52;;;1.13;;
64686;SDS011;51113;53.646;-113.674;2022-07-10T09:26:30;9.55;;;1.08;;
64686;SDS011;51113;53.646;-113.674;2022-07-10T09:29:06;2.95;;;0.85;;
64686;SDS011;51113;53.646;-113.674;2022-07-10T09:32:12;2.45;;;0.93;;
64686;SDS011;51113;53.646;-113.674;2022-07-10T09:37:18;2.28;;;0.90;;
64686;SDS011;51113;53.646;-113.674;2022-07-10T09:40:00;2.40;;;0.88;;
64686;SDS011;51113;53.646;-113.674;2022-07-10T09:42:37;1.27;;;0.80;;
64686;SDS011;51113;53.646;-113.674;2022-07-10T09:47:46;2.20;;;0.80;;
64686;SDS011;51113;53.646;-113.674;2022-07-10T09:55:30;0.80;;;0.68;;
64686;SDS011;51113;53.646;-113.674;2022-07-10T09:58:01;1.35;;;0.80;;
64686;SDS011;51113;53.646;-113.674;2022-07-10T10:00:32;4.55;;;0.80;;
64686;SDS011;51113;53.646;-113.674;2022-07-10T10:03:03;1.20;;;0.80;;
64686;SDS011;51113;53.646;-113.674;2022-07-10T10:05:39;0.90;;;0.65;;
64686;SDS011;51113;53.646;-113.674;2022-07-10T10:08:36;0.80;;;0.70;;
64686;SDS011;51113;53.646;-113.674;2022-07-10T10:11:19;1.13;;;0.80;;
64686;SDS011;51113;53.646;-113.674;2022-07-10T10:13:49;2.03;;;0.90;;
64686;SDS011;51113;53.646;-113.674;2022-07-10T10:16:20;2.83;;;1.00;;
64686;SDS011;51113;53.646;-113.674;2022-07-10T10:18:50;2.73;;;0.73;;
64686;SDS011;51113;53.646;-113.674;2022-07-10T10:21:38;7.18;;;1.00;;
64686;SDS011;51113;53.646;-113.674;2022-07-10T10:24:07;1.15;;;0.75;;
64686;SDS011;51113;53.646;-113.674;2022-07-10T10:26:36;4.22;;;1.10;;
64686;SDS011;51113;53.646;-113.674;2022-07-10T10:29:05;3.40;;;0.80;;
64686;SDS011;51113;53.646;-113.674;2022-07-10T10:31:34;2.20;;;0.90;;
64686;SDS011;51113;53.646;-113.674;2022-07-10T10:34:04;4.47;;;0.90;;
64686;SDS011;51113;53.646;-113.674;2022-07-10T10:41:42;4.88;;;1.15;;
64686;SDS011;51113;53.646;-113.674;2022-07-10T10:52:29;0.63;;;0.63;;
64686;SDS011;51113;53.646;-113.674;2022-07-10T11:00:04;1.30;;;0.88;;
64686;SDS011;51113;53.646;-113.674;2022-07-10T11:02:38;0.75;;;0.70;;
64686;SDS011;51113;53.646;-113.674;2022-07-10T11:07:54;1.27;;;0.82;;
64686;SDS011;51113;53.646;-113.674;2022-07-10T11:15:41;1.00;;;0.90;;
64686;SDS011;51113;53.646;-113.674;2022-07-10T11:18:15;1.38;;;0.90;;
64686;SDS011;51113;53.646;-113.674;2022-07-10T11:20:48;2.45;;;0.80;;
64686;SDS011;51113;53.646;-113.674;2022-07-10T11:29:01;1.00;;;0.80;;
64686;SDS011;51113;53.646;-113.674;2022-07-10T11:31:34;0.70;;;0.70;;
64686;SDS011;51113;53.646;-113.674;2022-07-10T11:34:09;0.80;;;0.80;;
64686;SDS011;51113;53.646;-113.674;2022-07-10T11:36:38;1.13;;;0.70;;
64686;SDS011;51113;53.646;-113.674;2022-07-10T11:39:08;1.00;;;0.90;;
64686;SDS011;51113;53.646;-113.674;2022-07-10T11:41:46;1.25;;;0.90;;
64686;SDS011;51113;53.646;-113.674;2022-07-10T11:44:15;2.55;;;1.02;;
64686;SDS011;51113;53.646;-113.674;2022-07-10T11:46:47;1.15;;;0.80;;
64686;SDS011;51113;53.646;-113.674;2022-07-10T11:49:17;6.07;;;0.95;;
64686;SDS011;51113;53.646;-113.674;2022-07-10T11:51:46;1.30;;;0.95;;
64686;SDS011;51113;53.646;-113.674;2022-07-10T11:54:16;2.13;;;1.05;;
64686;SDS011;51113;53.646;-113.674;2022-07-10T11:56:49;0.70;;;0.70;;
64686;SDS011;51113;53.646;-113.674;2022-07-10T11:59:23;1.08;;;0.80;;
64686;SDS011;51113;53.646;-113.674;2022-07-10T12:01:54;4.70;;;0.90;;
64686;SDS011;51113;53.646;-113.674;2022-07-10T12:04:24;1.17;;;0.95;;
64686;SDS011;51113;53.646;-113.674;2022-07-10T12:06:54;1.17;;;1.00;;
64686;SDS011;51113;53.646;-113.674;2022-07-10T12:09:23;1.52;;;0.95;;
64686;SDS011;51113;53.646;-113.674;2022-07-10T12:11:59;1.92;;;1.00;;
64686;SDS011;51113;53.646;-113.674;2022-07-10T12:14:32;1.20;;;0.90;;
64686;SDS011;51113;53.646;-113.674;2022-07-10T12:17:10;0.85;;;0.80;;
64686;SDS011;51113;53.646;-113.674;2022-07-10T12:19:40;0.98;;;0.80;;
64686;SDS011;51113;53.646;-113.674;2022-07-10T12:22:10;2.20;;;1.10;;
64686;SDS011;51113;53.646;-113.674;2022-07-10T12:24:40;1.17;;;0.93;;
64686;SDS011;51113;53.646;-113.674;2022-07-10T12:27:10;3.60;;;0.90;;
64686;SDS011;51113;53.646;-113.674;2022-07-10T12:29:41;2.97;;;1.10;;
64686;SDS011;51113;53.646;-113.674;2022-07-10T12:32:10;2.58;;;1.00;;
64686;SDS011;51113;53.646;-113.674;2022-07-10T12:34:41;4.65;;;1.30;;
64686;SDS011;51113;53.646;-113.674;2022-07-10T12:37:11;1.38;;;1.17;;
64686;SDS011;51113;53.646;-113.674;2022-07-10T12:39:48;1.27;;;0.95;;
64686;SDS011;51113;53.646;-113.674;2022-07-10T12:42:27;1.38;;;1.05;;
64686;SDS011;51113;53.646;-113.674;2022-07-10T12:47:46;1.75;;;1.20;;
64686;SDS011;51113;53.646;-113.674;2022-07-10T12:50:16;2.03;;;1.10;;
64686;SDS011;51113;53.646;-113.674;2022-07-10T12:52:45;1.77;;;1.00;;
64686;SDS011;51113;53.646;-113.674;2022-07-10T12:55:21;9.25;;;1.30;;
64686;SDS011;51113;53.646;-113.674;2022-07-10T12:57:54;1.55;;;1.05;;
64686;SDS011;51113;53.646;-113.674;2022-07-10T13:00:28;3.08;;;1.05;;
64686;SDS011;51113;53.646;-113.674;2022-07-10T13:03:02;1.48;;;1.02;;
64686;SDS011;51113;53.646;-113.674;2022-07-10T13:05:33;2.78;;;1.13;;
64686;SDS011;51113;53.646;-113.674;2022-07-10T13:10:42;1.25;;;0.95;;
64686;SDS011;51113;53.646;-113.674;2022-07-10T13:13:13;1.90;;;1.40;;
64686;SDS011;51113;53.646;-113.674;2022-07-10T13:15:44;2.88;;;1.13;;
64686;SDS011;51113;53.646;-113.674;2022-07-10T13:18:23;4.30;;;1.05;;
64686;SDS011;51113;53.646;-113.674;2022-07-10T13:20:53;1.50;;;1.20;;
64686;SDS011;51113;53.646;-113.674;2022-07-10T13:23:28;2.53;;;1.10;;
64686;SDS011;51113;53.646;-113.674;2022-07-10T13:25:57;1.10;;;1.00;;
64686;SDS011;51113;53.646;-113.674;2022-07-10T13:28:27;3.55;;;0.93;;
64686;SDS011;51113;53.646;-113.674;2022-07-10T13:30:55;1.40;;;1.00;;
64686;SDS011;51113;53.646;-113.674;2022-07-10T13:33:24;1.15;;;1.00;;
64686;SDS011;51113;53.646;-113.674;2022-07-10T13:35:53;3.05;;;1.10;;
64686;SDS011;51113;53.646;-113.674;2022-07-10T13:38:25;1.35;;;1.05;;
64686;SDS011;51113;53.646;-113.674;2022-07-10T13:40:53;1.25;;;1.00;;
64686;SDS011;51113;53.646;-113.674;2022-07-10T13:43:22;1.92;;;0.93;;
64686;SDS011;51113;53.646;-113.674;2022-07-10T13:45:58;2.30;;;1.10;;
64686;SDS011;51113;53.646;-113.674;2022-07-10T13:48:28;2.78;;;1.00;;
64686;SDS011;51113;53.646;-113.674;2022-07-10T13:50:57;1.08;;;0.90;;
64686;SDS011;51113;53.646;-113.674;2022-07-10T13:53:25;2.08;;;1.00;;
64686;SDS011;51113;53.646;-113.674;2022-07-10T13:55:55;1.80;;;1.00;;
64686;SDS011;51113;53.646;-113.674;2022-07-10T13:58:24;7.03;;;1.17;;
64686;SDS011;51113;53.646;-113.674;2022-07-10T14:00:52;1.48;;;1.00;;
64686;SDS011;51113;53.646;-113.674;2022-07-10T14:03:22;0.93;;;0.90;;
64686;SDS011;51113;53.646;-113.674;2022-07-10T14:05:51;6.38;;;1.30;;
64686;SDS011;51113;53.646;-113.674;2022-07-10T14:08:21;1.60;;;1.15;;
64686;SDS011;51113;53.646;-113.674;2022-07-10T14:10:49;3.20;;;1.00;;
64686;SDS011;51113;53.646;-113.674;2022-07-10T14:13:19;2.13;;;1.33;;
64686;SDS011;51113;53.646;-113.674;2022-07-10T14:15:48;2.45;;;0.80;;
64686;SDS011;51113;53.646;-113.674;2022-07-10T14:18:17;1.42;;;0.90;;
64686;SDS011;51113;53.646;-113.674;2022-07-10T14:21:02;1.17;;;1.00;;
64686;SDS011;51113;53.646;-113.674;2022-07-10T14:23:32;1.52;;;1.20;;
64686;SDS011;51113;53.646;-113.674;2022-07-10T14:26:02;2.03;;;1.20;;
64686;SDS011;51113;53.646;-113.674;2022-07-10T14:28:32;2.70;;;1.30;;
64686;SDS011;51113;53.646;-113.674;2022-07-10T14:31:03;1.80;;;1.10;;
64686;SDS011;51113;53.646;-113.674;2022-07-10T14:33:33;2.28;;;1.38;;
64686;SDS011;51113;53.646;-113.674;2022-07-10T14:36:04;3.95;;;1.20;;
64686;SDS011;51113;53.646;-113.674;2022-07-10T14:38:33;4.65;;;1.30;;
64686;SDS011;51113;53.646;-113.674;2022-07-10T14:41:02;2.40;;;1.30;;
64686;SDS011;51113;53.646;-113.674;2022-07-10T14:43:34;2.95;;;1.00;;
64686;SDS011;51113;53.646;-113.674;2022-07-10T14:46:03;1.48;;;1.10;;
64686;SDS011;51113;53.646;-113.674;2022-07-10T14:48:33;5.53;;;1.40;;
64686;SDS011;51113;53.646;-113.674;2022-07-10T14:51:04;1.85;;;1.10;;
64686;SDS011;51113;53.646;-113.674;2022-07-10T14:53:33;2.15;;;0.90;;
64686;SDS011;51113;53.646;-113.674;2022-07-10T14:56:06;4.30;;;1.30;;
64686;SDS011;51113;53.646;-113.674;2022-07-10T14:58:35;1.52;;;1.10;;
64686;SDS011;51113;53.646;-113.674;2022-07-10T15:01:24;1.52;;;1.10;;
64686;SDS011;51113;53.646;-113.674;2022-07-10T15:03:54;2.00;;;1.27;;
64686;SDS011;51113;53.646;-113.674;2022-07-10T15:06:25;2.10;;;1.20;;
64686;SDS011;51113;53.646;-113.674;2022-07-10T15:08:54;1.42;;;1.10;;
64686;SDS011;51113;53.646;-113.674;2022-07-10T15:11:23;1.60;;;1.27;;
64686;SDS011;51113;53.646;-113.674;2022-07-10T15:13:53;1.88;;;1.20;;
64686;SDS011;51113;53.646;-113.674;2022-07-10T15:16:27;2.60;;;1.20;;
64686;SDS011;51113;53.646;-113.674;2022-07-10T15:18:57;9.10;;;1.40;;
64686;SDS011;51113;53.646;-113.674;2022-07-10T15:21:26;1.35;;;1.10;;